Cape Magnolia — 3FGP2 — position and weather

sailwx.info

Track history (hours):
 
Tides and Currents Weather Stations Pressure Air Temp Water Temp Dewpoint Dewpoint Depression Visibility Wind Speed Wind Dir Waves Ship Positions

Cape Magnolia

Last reported at 2016-Nov-19 20:33 UTC. Time now 2016-Dec-04 22:29 UTC.
Position S 15°59' E 120°19'.
Warning: this ship's position is 15 days out of date.

Length 292 m; draft 16.1 m.

Type: Cargo ship. MMSI: 357427000.

Date/timePositionNaut miles runAvg speedWind from/ knotsBaromVisibWave heightAir tempDewpointWater temp
2016-Nov-19 20:33S 15°59' E 120°19'4411.0
2016-Nov-19 16:31S 16°40' E 120°02'2210.8
2016-Nov-19 14:27S 17°01' E 119°53'11810.7
2016-Nov-19 03:29S 18°48' E 119°02'1010.9
2016-Nov-19 02:33S 18°57' E 118°57'1110.4
2016-Nov-19 01:32S 19°07' E 118°53'1010.3
2016-Nov-19 00:33S 19°16' E 118°48'1010.2
2016-Nov-18 23:32S 19°25' E 118°43'3210.6
2016-Nov-18 20:33S 19°54' E 118°29'18 9.2
2016-Nov-18 18:33S 20°12' E 118°32'7 6.6
2016-Nov-18 17:32S 20°18' E 118°35'1 0.3
2016-Nov-18 14:22S 20°19' E 118°34'0 0.0
2016-Nov-18 11:28S 20°19' E 118°34'0 0.0
2016-Nov-18 09:22S 20°19' E 118°34'0 0.0
2016-Nov-18 05:16S 20°19' E 118°34'0 0.0
2016-Nov-17 21:04S 20°19' E 118°34'0 0.0
2016-Nov-17 19:22S 20°19' E 118°34'0 0.0
2016-Nov-17 18:28S 20°19' E 118°34'0 0.0
2016-Nov-17 14:16S 20°19' E 118°34'0 0.0
2016-Nov-17 11:22S 20°19' E 118°34'0 0.0
2016-Nov-17 08:22S 20°19' E 118°34'11 6.0
2016-Nov-17 06:34S 20°09' E 118°33'35 1.4
2016-Nov-16 04:33S 19°34' E 118°39'  
Track history (hours):
 
Tides and Currents Weather Stations Pressure Air Temp Water Temp Dewpoint Dewpoint Depression Visibility Wind Speed Wind Dir Waves Ship Positions

Cape Magnolia

Last reported at 2016-Nov-19 20:33 UTC. Time now 2016-Dec-04 22:29 UTC.
Position S 15°59' E 120°19'.
Warning: this ship's position is 15 days out of date.

Length 292 m; draft 16.1 m.

Type: Cargo ship. MMSI: 357427000.

Date/timePositionNaut miles runAvg speedWind from/ knotsBaromVisibWave heightAir tempDewpointWater temp
2016-Nov-19 20:33S 15°59' E 120°19'4411.0
2016-Nov-19 16:31S 16°40' E 120°02'2210.8
2016-Nov-19 14:27S 17°01' E 119°53'11810.7
2016-Nov-19 03:29S 18°48' E 119°02'1010.9
2016-Nov-19 02:33S 18°57' E 118°57'1110.4
2016-Nov-19 01:32S 19°07' E 118°53'1010.3
2016-Nov-19 00:33S 19°16' E 118°48'1010.2
2016-Nov-18 23:32S 19°25' E 118°43'3210.6
2016-Nov-18 20:33S 19°54' E 118°29'18 9.2
2016-Nov-18 18:33S 20°12' E 118°32'7 6.6
2016-Nov-18 17:32S 20°18' E 118°35'1 0.3
2016-Nov-18 14:22S 20°19' E 118°34'0 0.0
2016-Nov-18 11:28S 20°19' E 118°34'0 0.0
2016-Nov-18 09:22S 20°19' E 118°34'0 0.0
2016-Nov-18 05:16S 20°19' E 118°34'0 0.0
2016-Nov-17 21:04S 20°19' E 118°34'0 0.0
2016-Nov-17 19:22S 20°19' E 118°34'0 0.0
2016-Nov-17 18:28S 20°19' E 118°34'0 0.0
2016-Nov-17 14:16S 20°19' E 118°34'0 0.0
2016-Nov-17 11:22S 20°19' E 118°34'0 0.0
2016-Nov-17 08:22S 20°19' E 118°34'11 6.0
2016-Nov-17 06:34S 20°09' E 118°33'35 1.4
2016-Nov-16 04:33S 19°34' E 118°39'  

Dump ship's entire track history